Time;durP1;ratioP1;P1;durP2;ratioP2;P2;SDS_P1;SDS_P2;PMS_P1;PMS_P2;Temp;Humidity;BMP_temperature;BMP_pressure;BME280_temperature;BME280_humidity;BME280_pressure;Samples;Min_cycle;Max_cycle;Signal;HPM_P1;HPM_P2
2023/12/10 08:26:38;;;;;;;24.65;1.88;;;;;;;6.77;78.15;96236.72;2084263;28;20584;-68
2023/12/10 08:27:40;;;;;;;21.02;2.38;;;;;;;6.90;77.42;96257.88;2081183;28;20215;-68
2023/12/10 08:28:42;;;;;;;13.65;2.35;;;;;;;6.79;77.92;96269.50;2083430;28;20194;-69
2023/12/10 08:29:43;;;;;;;19.60;2.92;;;;;;;6.84;77.44;96261.53;2090296;28;20253;-69
2023/12/10 08:30:45;;;;;;;19.15;2.30;;;;;;;6.93;77.41;96248.25;2085596;28;20206;-68
2023/12/10 08:31:46;;;;;;;9.82;2.13;;;;;;;6.88;77.53;96257.06;2079514;28;20200;-67
2023/12/10 08:37:45;;;;;;;11.88;2.20;;;;;;;7.17;76.80;96250.81;2088166;27;20571;-67
2023/12/10 08:38:47;;;;;;;16.77;2.85;;;;;;;7.39;75.78;96244.78;2086652;28;20201;-67
2023/12/10 08:39:49;;;;;;;12.70;3.05;;;;;;;7.05;76.13;96233.94;2072121;28;20251;-67
2023/12/10 08:40:51;;;;;;;15.98;2.45;;;;;;;6.96;76.98;96250.72;2072714;28;20235;-68
2023/12/10 08:41:52;;;;;;;22.30;3.38;;;;;;;6.95;76.93;96241.22;2074016;28;20203;-67
2023/12/10 08:42:54;;;;;;;14.98;2.63;;;;;;;7.17;76.17;96249.06;2072921;28;20565;-67
2023/12/10 08:43:55;;;;;;;26.30;3.30;;;;;;;7.13;76.37;96249.25;2072720;28;20285;-67
2023/12/10 08:45:00;;;;;;;13.75;2.90;;;;;;;7.84;75.04;96255.13;2076399;28;20204;-67
2023/12/10 08:46:02;;;;;;;16.40;3.40;;;;;;;8.66;72.11;96249.19;2076136;28;20205;-67
2023/12/10 08:47:04;;;;;;;14.45;2.97;;;;;;;8.28;72.29;96236.03;2069579;28;20758;-67
2023/12/10 08:48:05;;;;;;;13.38;2.97;;;;;;;8.24;73.33;96244.03;2068663;28;20651;-68
2023/12/10 08:49:08;;;;;;;12.05;2.40;;;;;;;8.53;71.24;96241.97;2072795;28;20657;-68
2023/12/10 08:50:09;;;;;;;10.25;2.90;;;;;;;8.23;72.23;96269.19;2070699;28;20680;-68
2023/12/10 08:51:11;;;;;;;26.55;4.10;;;;;;;8.77;71.17;96253.09;2069650;28;20251;-68
2023/12/10 08:52:12;;;;;;;14.48;3.83;;;;;;;9.29;69.47;96269.00;2066625;28;20217;-68
2023/12/10 08:53:14;;;;;;;20.48;3.00;;;;;;;9.72;68.21;96260.94;2070233;28;20281;-67
2023/12/10 08:54:15;;;;;;;21.02;2.70;;;;;;;8.73;69.88;96265.38;2069129;28;20650;-68
2023/12/10 08:55:18;;;;;;;24.42;3.20;;;;;;;8.49;71.61;96269.88;2072728;28;20619;-68
2023/12/10 08:56:19;;;;;;;18.77;2.33;;;;;;;9.07;71.34;96271.72;2063300;28;20202;-67
2023/12/10 08:57:21;;;;;;;8.23;1.80;;;;;;;8.84;71.36;96283.16;2071986;28;20230;-67
2023/12/10 08:58:23;;;;;;;24.35;2.90;;;;;;;8.43;72.26;96297.00;2071046;28;20193;-68
2023/12/10 08:59:25;;;;;;;29.35;3.10;;;;;;;8.00;73.96;96288.34;2072564;28;20206;-67
2023/12/10 09:00:26;;;;;;;23.20;3.63;;;;;;;7.64;75.34;96291.47;2074786;28;20657;-68
2023/12/10 09:01:28;;;;;;;14.35;2.25;;;;;;;7.34;77.11;96304.75;2074956;28;20816;-68
2023/12/10 09:02:30;;;;;;;11.60;2.67;;;;;;;7.06;78.61;96307.47;2066979;28;20639;-68
2023/12/10 09:03:32;;;;;;;14.48;3.28;;;;;;;6.92;80.11;96303.66;2069829;28;20185;-69
2023/12/10 09:04:33;;;;;;;12.77;3.72;;;;;;;6.65;81.41;96288.16;2079350;28;20203;-68
2023/12/10 09:05:35;;;;;;;16.33;3.97;;;;;;;6.66;81.39;96314.94;2074144;28;20209;-69
2023/12/10 09:06:37;;;;;;;36.42;3.28;;;;;;;6.53;83.43;96310.16;2075455;28;20638;-68
2023/12/10 09:07:38;;;;;;;15.82;2.85;;;;;;;6.40;84.46;96319.25;2071817;28;20583;-69
2023/12/10 09:18:02;;;;;;;16.20;2.28;;;;;;;5.82;91.66;96320.19;2083506;27;20568;-74
2023/12/10 09:19:04;;;;;;;8.65;1.80;;;;;;;6.07;91.32;96340.19;2089746;28;20200;-74
2023/12/10 09:20:07;;;;;;;17.23;2.90;;;;;;;6.89;89.45;96340.06;2089903;28;20250;-74
2023/12/10 09:21:08;;;;;;;9.27;2.35;;;;;;;6.84;88.44;96336.78;2078725;28;20256;-73
2023/12/10 09:22:10;;;;;;;16.27;2.95;;;;;;;6.62;88.14;96340.13;2075057;28;20221;-71
2023/12/10 09:23:12;;;;;;;15.32;2.53;;;;;;;6.81;88.68;96348.13;2089964;28;20301;-72
2023/12/10 09:24:14;;;;;;;19.35;3.42;;;;;;;6.56;89.86;96326.53;2082126;28;20209;-71
2023/12/10 09:25:16;;;;;;;21.20;3.00;;;;;;;6.47;88.96;96325.09;2074965;28;20658;-72
2023/12/10 09:26:19;;;;;;;18.98;3.35;;;;;;;6.45;90.03;96334.66;2075843;28;20197;-72
2023/12/10 09:27:21;;;;;;;17.10;3.00;;;;;;;6.53;89.06;96330.91;2088429;28;20334;-71
2023/12/10 09:28:23;;;;;;;23.75;3.90;;;;;;;6.69;88.07;96325.19;2084742;28;20199;-71
2023/12/10 09:29:24;;;;;;;21.80;2.83;;;;;;;6.52;87.78;96329.19;2075065;28;20211;-72
2023/12/10 09:30:26;;;;;;;19.77;4.32;;;;;;;6.43;89.14;96331.28;2072415;28;20211;-70
2023/12/10 09:31:27;;;;;;;19.13;2.63;;;;;;;6.47;88.14;96330.28;2074405;28;20206;-71
2023/12/10 09:32:29;;;;;;;13.52;2.13;;;;;;;6.59;87.86;96348.03;2066470;28;20231;-70
2023/12/10 09:33:31;;;;;;;17.77;3.00;;;;;;;6.78;86.88;96340.47;2073583;28;20214;-72
2023/12/10 09:34:33;;;;;;;24.95;3.42;;;;;;;6.65;87.51;96345.22;2072395;28;20194;-72
2023/12/10 09:35:35;;;;;;;14.20;2.45;;;;;;;6.58;86.99;96341.13;2070926;28;20257;-71
2023/12/10 09:36:37;;;;;;;14.63;2.40;;;;;;;6.57;87.02;96347.22;2071332;28;20533;-72
2023/12/10 09:37:38;;;;;;;16.60;3.25;;;;;;;6.40;87.83;96344.34;2069369;28;20241;-72
2023/12/10 09:38:40;;;;;;;11.77;2.17;;;;;;;6.42;87.47;96342.53;2072107;28;20200;-72
2023/12/10 09:39:41;;;;;;;17.45;2.63;;;;;;;6.38;87.88;96347.81;2073724;28;20195;-72
2023/12/10 09:49:53;;;;;;;25.63;2.72;;;;;;;6.01;90.19;96345.56;2092015;28;20582;-69
2023/12/10 09:50:55;;;;;;;13.95;3.40;;;;;;;6.12;90.61;96360.78;2091222;28;20196;-71
2023/12/10 09:59:40;;;;;;;25.75;2.45;;;;;;;5.98;91.37;96359.47;2082581;28;20557;-64
2023/12/10 10:00:41;;;;;;;13.93;2.40;;;;;;;5.94;91.58;96333.66;2083823;28;20196;-64
2023/12/10 10:08:10;;;;;;;9.75;1.80;;;;;;;6.05;90.07;96344.56;2101693;27;20690;-62
2023/12/10 10:09:11;;;;;;;20.45;3.85;;;;;;;6.01;90.15;96323.09;2099054;28;20200;-69
2023/12/10 10:17:00;;;;;;;16.83;2.20;;;;;;;6.09;90.86;96343.56;2082654;28;20576;-70
2023/12/10 10:18:04;;;;;;;18.17;2.30;;;;;;;6.09;90.74;96343.56;2081941;28;20201;-71
2023/12/10 10:24:53;;;;;;;16.60;2.35;;;;;;;6.10;89.62;96313.34;2103157;27;20568;-70
2023/12/10 10:25:54;;;;;;;11.88;3.15;;;;;;;6.19;89.65;96319.03;2107213;28;20739;-71
2023/12/10 10:26:56;;;;;;;14.75;1.63;;;;;;;6.23;89.47;96306.00;2098776;28;20196;-70
2023/12/10 10:27:58;;;;;;;10.60;2.05;;;;;;;6.41;89.46;96318.34;2089636;28;20199;-71
2023/12/10 10:29:01;;;;;;;20.05;2.95;;;;;;;6.45;89.13;96326.88;2092388;28;20286;-70
2023/12/10 10:30:04;;;;;;;20.35;3.38;;;;;;;6.45;89.13;96326.88;2098898;28;20388;-71
2023/12/10 10:31:06;;;;;;;8.65;1.80;;;;;;;6.61;87.97;96309.06;2094546;28;20207;-71
2023/12/10 10:32:14;;;;;;;18.98;5.88;;;;;;;6.55;87.39;96297.13;2096954;28;20189;-68
2023/12/10 10:33:16;;;;;;;20.90;3.70;;;;;;;6.65;87.87;96313.22;2097903;28;20238;-71
2023/12/10 10:34:19;;;;;;;15.35;3.85;;;;;;;6.61;86.56;96304.69;2091678;28;20731;-72
2023/12/10 10:35:20;;;;;;;22.75;4.65;;;;;;;6.83;86.30;96304.81;2094181;28;20227;-71
2023/12/10 10:36:22;;;;;;;11.80;3.08;;;;;;;6.80;86.43;96317.88;2094423;28;20220;-71
2023/12/10 10:37:24;;;;;;;16.38;2.90;;;;;;;6.72;87.22;96312.13;2095498;28;20275;-71
2023/12/10 10:49:20;;;;;;;10.63;2.03;;;;;;;6.25;88.86;96320.59;2117280;27;20581;-71
2023/12/10 10:50:25;;;;;;;24.30;4.07;;;;;;;6.35;88.50;96332.38;2119471;28;20205;-71
2023/12/10 10:59:59;;;;;;;14.00;2.42;;;;;;;6.44;88.23;96320.84;2112115;27;20527;-71
2023/12/10 11:01:05;;;;;;;16.58;2.60;;;;;;;6.43;87.59;96306.19;2119728;28;20640;-71
2023/12/10 11:07:06;;;;;;;10.15;2.60;;;;;;;6.63;86.92;96299.47;2096853;27;20558;-70
2023/12/10 11:08:10;;;;;;;14.65;3.45;;;;;;;6.61;86.84;96265.78;2078327;28;20596;-71
2023/12/10 11:09:11;;;;;;;22.35;3.08;;;;;;;7.13;85.22;96294.22;2073426;28;20224;-71
2023/12/10 11:10:13;;;;;;;18.23;3.13;;;;;;;8.05;82.21;96294.22;2081844;28;20638;-71
2023/12/10 11:11:15;;;;;;;17.95;2.55;;;;;;;7.59;81.99;96289.06;2090051;28;20672;-71
2023/12/10 11:12:39;;;;;;;13.93;2.97;;;;;;;7.31;82.92;96297.91;2080034;28;20249;-71
2023/12/10 11:13:41;;;;;;;21.75;4.03;;;;;;;7.11;84.33;96303.81;2071216;28;20219;-71
2023/12/10 11:14:43;;;;;;;15.60;2.63;;;;;;;6.97;84.47;96311.25;2065976;28;20208;-71
2023/12/10 11:23:32;;;;;;;12.90;2.63;;;;;;;6.67;86.45;96308.84;2081727;28;21266;-70
2023/12/10 11:24:34;;;;;;;19.02;2.20;;;;;;;6.70;86.42;96307.00;2080900;28;20228;-70
2023/12/10 11:30:27;;;;;;;12.35;2.65;;;;;;;6.75;86.50;96299.03;2084183;28;20908;-62
2023/12/10 11:31:29;;;;;;;23.45;2.88;;;;;;;6.85;86.52;96312.53;2085939;28;20909;-62
2023/12/10 11:32:31;;;;;;;14.18;2.42;;;;;;;6.88;85.96;96294.25;2080683;28;20232;-62
2023/12/10 11:33:32;;;;;;;15.73;2.95;;;;;;;6.94;85.74;96301.81;2074707;28;20206;-62
2023/12/10 11:34:34;;;;;;;18.52;1.88;;;;;;;7.03;85.55;96296.31;2073809;28;20415;-62
2023/12/10 11:35:36;;;;;;;19.35;2.92;;;;;;;7.13;85.69;96288.19;2073322;28;20194;-62
2023/12/10 11:36:38;;;;;;;18.20;2.80;;;;;;;7.30;85.04;96285.81;2073810;28;20302;-63
2023/12/10 11:37:43;;;;;;;17.05;2.42;;;;;;;7.64;83.53;96284.53;2058331;28;20251;-62
2023/12/10 11:38:46;;;;;;;16.88;2.70;;;;;;;7.55;83.20;96276.25;2073554;28;20293;-63
2023/12/10 11:39:48;;;;;;;14.75;2.45;;;;;;;7.43;83.68;96283.59;2070171;28;20211;-62
2023/12/10 11:40:50;;;;;;;12.85;2.78;;;;;;;7.43;83.80;96275.81;2070223;28;20224;-62
2023/12/10 11:41:51;;;;;;;9.25;2.67;;;;;;;7.40;83.92;96293.25;2074633;28;20735;-62
2023/12/10 11:43:07;;;;;;;19.83;2.47;;;;;;;7.80;83.23;96279.56;2074003;28;20338;-61
2023/12/10 11:44:10;;;;;;;17.55;3.25;;;;;;;7.68;83.54;96283.50;2072802;28;20201;-62
2023/12/10 11:45:13;;;;;;;20.45;3.58;;;;;;;7.66;83.54;96280.13;2090070;28;20199;-70
2023/12/10 11:46:22;;;;;;;19.27;3.55;;;;;;;7.77;84.06;96274.50;2090425;28;20214;-69
2023/12/10 11:47:32;;;;;;;20.52;3.10;;;;;;;7.96;82.84;96279.81;2073141;28;20253;-68
2023/12/10 11:48:34;;;;;;;17.02;2.80;;;;;;;7.77;82.33;96269.31;2074103;28;20208;-69
2023/12/10 11:49:36;;;;;;;17.10;2.65;;;;;;;7.88;82.88;96279.25;2074310;28;20747;-68
2023/12/10 11:50:37;;;;;;;25.60;2.90;;;;;;;7.84;83.15;96288.94;2073637;28;20276;-68
2023/12/10 11:51:41;;;;;;;14.68;3.03;;;;;;;7.79;83.13;96290.03;2075246;28;20251;-69
2023/12/10 11:52:42;;;;;;;18.17;2.90;;;;;;;7.68;83.26;96278.31;2072540;28;20228;-69
2023/12/10 11:53:45;;;;;;;12.45;2.30;;;;;;;7.60;82.53;96272.56;2073415;28;20190;-69
2023/12/10 11:54:47;;;;;;;12.95;2.55;;;;;;;7.66;83.04;96295.72;2072152;28;20233;-70
2023/12/10 11:55:51;;;;;;;19.67;3.15;;;;;;;7.63;83.13;96280.25;2073888;28;20197;-69
2023/12/10 11:56:53;;;;;;;14.88;2.88;;;;;;;7.60;83.57;96280.34;2073405;28;20221;-70
2023/12/10 11:57:56;;;;;;;16.10;2.30;;;;;;;7.61;83.73;96289.84;2073531;28;20233;-70
2023/12/10 11:58:59;;;;;;;22.17;3.15;;;;;;;7.59;83.82;96296.00;2074163;28;20197;-70
2023/12/10 12:00:04;;;;;;;11.43;2.70;;;;;;;7.63;83.67;96302.78;2074883;28;20221;-70
2023/12/10 12:01:07;;;;;;;23.90;4.13;;;;;;;7.60;84.10;96305.50;2074344;28;20232;-70
2023/12/10 12:02:09;;;;;;;9.73;2.33;;;;;;;7.49;83.84;96301.56;2072783;28;20204;-70
2023/12/10 12:03:10;;;;;;;16.55;2.78;;;;;;;7.38;84.41;96311.50;2074353;28;20201;-70
2023/12/10 12:04:12;;;;;;;15.52;2.95;;;;;;;7.37;84.98;96317.59;2074748;28;20205;-70
2023/12/10 12:05:15;;;;;;;34.58;3.50;;;;;;;7.34;85.36;96328.94;2070464;28;20668;-71
2023/12/10 12:06:18;;;;;;;11.77;2.47;;;;;;;7.16;85.48;96319.22;2071136;28;20677;-69
2023/12/10 12:07:23;;;;;;;11.80;2.38;;;;;;;7.08;86.03;96313.47;2075279;28;20676;-68
2023/12/10 12:08:28;;;;;;;14.93;2.80;;;;;;;7.06;86.22;96318.72;2074196;28;20251;-70
2023/12/10 12:09:30;;;;;;;16.23;3.08;;;;;;;6.99;86.38;96328.47;2081040;28;20223;-68
2023/12/10 12:10:36;;;;;;;16.00;3.17;;;;;;;6.92;86.67;96316.63;2087984;28;20376;-69
2023/12/10 12:11:39;;;;;;;21.35;2.85;;;;;;;6.90;86.63;96331.41;2083792;28;20200;-69
2023/12/10 12:12:45;;;;;;;18.73;3.65;;;;;;;6.85;87.13;96315.97;2070482;28;20224;-68
2023/12/10 12:13:46;;;;;;;19.85;3.08;;;;;;;6.84;87.52;96319.50;2073086;28;20749;-69
2023/12/10 12:14:51;;;;;;;17.40;3.17;;;;;;;6.78;87.34;96322.28;2073588;28;20196;-70
2023/12/10 12:15:52;;;;;;;15.90;2.92;;;;;;;6.71;87.56;96305.25;2072943;28;20830;-69
2023/12/10 12:26:55;;;;;;;18.38;2.30;;;;;;;6.45;87.56;96314.75;2089916;27;20552;-69
2023/12/10 12:33:18;;;;;;;11.23;2.88;;;;;;;6.48;87.16;96314.66;2090031;28;20558;-68
2023/12/10 12:34:20;;;;;;;18.38;2.45;;;;;;;6.54;87.69;96311.84;2087755;28;20208;-71
2023/12/10 12:39:56;;;;;;;6.75;2.08;;;;;;;6.64;87.01;96295.97;2091582;28;20568;-69
2023/12/10 12:41:04;;;;;;;16.23;2.25;;;;;;;6.67;87.29;96282.91;2090638;28;20210;-70
2023/12/10 12:42:05;;;;;;;13.35;3.03;;;;;;;6.75;87.14;96280.03;2089006;27;20291;-69
2023/12/10 12:43:07;;;;;;;17.42;2.55;;;;;;;6.76;86.75;96277.38;2083563;28;20752;-69
2023/12/10 12:49:43;;;;;;;16.52;2.25;;;;;;;6.57;87.15;96243.44;2100433;27;21090;-71
2023/12/10 12:50:45;;;;;;;16.10;2.78;;;;;;;6.65;87.51;96253.56;2107620;28;20225;-71
2023/12/10 12:51:47;;;;;;;18.33;2.65;;;;;;;6.66;87.18;96261.28;2106689;28;20199;-71
2023/12/10 12:59:50;;;;;;;22.85;3.05;;;;;;;6.61;88.85;96291.72;2086733;28;20904;-72
2023/12/10 13:08:37;;;;;;;8.65;1.95;;;;;;;6.41;88.66;96257.84;2103949;27;20609;-72
2023/12/10 13:17:04;;;;;;;18.13;3.05;;;;;;;6.45;88.05;96262.03;2099418;27;20904;-67
